sensor_id;sensor_type;location;lat;lon;timestamp;pressure;altitude;pressure_sealevel;temperature;humidity
7662;BME280;30314;48.184;11.510;2023-02-11T00:00:18;97810.50;;;-3.62;100.00
7662;BME280;30314;48.184;11.510;2023-02-11T00:02:45;97810.75;;;-3.56;100.00
7662;BME280;30314;48.184;11.510;2023-02-11T00:05:13;97820.13;;;-3.55;100.00
7662;BME280;30314;48.184;11.510;2023-02-11T00:07:40;97822.16;;;-3.58;100.00
7662;BME280;30314;48.184;11.510;2023-02-11T00:10:07;97817.31;;;-3.61;100.00
7662;BME280;30314;48.184;11.510;2023-02-11T00:12:35;97832.19;;;-3.55;100.00
7662;BME280;30314;48.184;11.510;2023-02-11T00:15:02;97819.78;;;-3.70;100.00
7662;BME280;30314;48.184;11.510;2023-02-11T00:17:28;97786.00;;;-3.94;100.00
7662;BME280;30314;48.184;11.510;2023-02-11T00:19:55;97829.84;;;-3.66;100.00
7662;BME280;30314;48.184;11.510;2023-02-11T00:22:21;97763.75;;;-4.05;100.00
7662;BME280;30314;48.184;11.510;2023-02-11T00:24:48;97819.53;;;-3.66;100.00
7662;BME280;30314;48.184;11.510;2023-02-11T00:27:14;97823.06;;;-3.67;100.00
7662;BME280;30314;48.184;11.510;2023-02-11T00:29:41;97816.13;;;-3.67;100.00
7662;BME280;30314;48.184;11.510;2023-02-11T00:32:08;97824.75;;;-3.58;100.00
7662;BME280;30314;48.184;11.510;2023-02-11T00:34:36;97806.22;;;-3.72;100.00
7662;BME280;30314;48.184;11.510;2023-02-11T00:37:03;97802.31;;;-3.76;100.00
7662;BME280;30314;48.184;11.510;2023-02-11T00:39:30;97818.63;;;-3.57;100.00
7662;BME280;30314;48.184;11.510;2023-02-11T00:41:57;97797.25;;;-3.67;100.00
7662;BME280;30314;48.184;11.510;2023-02-11T00:44:24;97790.72;;;-3.72;100.00
7662;BME280;30314;48.184;11.510;2023-02-11T00:46:51;97781.44;;;-3.83;100.00
7662;BME280;30314;48.184;11.510;2023-02-11T00:49:17;97788.31;;;-3.73;100.00
7662;BME280;30314;48.184;11.510;2023-02-11T00:51:44;97774.47;;;-3.82;100.00
7662;BME280;30314;48.184;11.510;2023-02-11T00:54:11;97775.63;;;-3.66;100.00
7662;BME280;30314;48.184;11.510;2023-02-11T00:56:37;97777.25;;;-3.65;100.00
7662;BME280;30314;48.184;11.510;2023-02-11T00:59:04;97790.16;;;-3.47;100.00
7662;BME280;30314;48.184;11.510;2023-02-11T01:01:30;97786.97;;;-3.59;100.00
7662;BME280;30314;48.184;11.510;2023-02-11T01:03:57;97767.69;;;-3.83;100.00
7662;BME280;30314;48.184;11.510;2023-02-11T01:06:23;97736.56;;;-4.00;100.00
7662;BME280;30314;48.184;11.510;2023-02-11T01:08:50;97800.63;;;-3.67;100.00
7662;BME280;30314;48.184;11.510;2023-02-11T01:11:18;97775.22;;;-3.72;100.00
7662;BME280;30314;48.184;11.510;2023-02-11T01:13:46;97790.88;;;-3.73;100.00
7662;BME280;30314;48.184;11.510;2023-02-11T01:16:14;97801.78;;;-3.79;100.00
7662;BME280;30314;48.184;11.510;2023-02-11T01:18:41;97797.44;;;-3.79;100.00
7662;BME280;30314;48.184;11.510;2023-02-11T01:21:09;97783.13;;;-3.91;100.00
7662;BME280;30314;48.184;11.510;2023-02-11T01:23:36;97776.16;;;-3.91;100.00
7662;BME280;30314;48.184;11.510;2023-02-11T01:26:03;97794.88;;;-3.79;100.00
7662;BME280;30314;48.184;11.510;2023-02-11T01:28:30;97780.53;;;-3.91;100.00
7662;BME280;30314;48.184;11.510;2023-02-11T01:31:01;97767.53;;;-4.00;100.00
7662;BME280;30314;48.184;11.510;2023-02-11T01:33:28;97779.06;;;-3.94;100.00
7662;BME280;30314;48.184;11.510;2023-02-11T01:35:59;97783.03;;;-4.00;100.00
7662;BME280;30314;48.184;11.510;2023-02-11T01:38:26;97742.41;;;-4.26;100.00
7662;BME280;30314;48.184;11.510;2023-02-11T01:40:59;97799.84;;;-3.95;100.00
7662;BME280;30314;48.184;11.510;2023-02-11T01:43:32;97783.88;;;-4.09;100.00
7662;BME280;30314;48.184;11.510;2023-02-11T01:46:05;97786.63;;;-4.11;100.00
7662;BME280;30314;48.184;11.510;2023-02-11T01:48:41;97789.38;;;-3.94;100.00
7662;BME280;30314;48.184;11.510;2023-02-11T01:51:15;97773.88;;;-3.94;100.00
7662;BME280;30314;48.184;11.510;2023-02-11T01:53:45;97793.44;;;-3.91;100.00
7662;BME280;30314;48.184;11.510;2023-02-11T01:56:34;97787.09;;;-3.97;100.00
7662;BME280;30314;48.184;11.510;2023-02-11T01:59:25;97787.38;;;-4.00;100.00
7662;BME280;30314;48.184;11.510;2023-02-11T02:01:56;97784.94;;;-4.02;100.00
7662;BME280;30314;48.184;11.510;2023-02-11T02:04:27;97771.13;;;-4.11;100.00
7662;BME280;30314;48.184;11.510;2023-02-11T02:07:02;97782.28;;;-3.92;100.00
7662;BME280;30314;48.184;11.510;2023-02-11T02:09:37;97746.56;;;-4.15;100.00
7662;BME280;30314;48.184;11.510;2023-02-11T02:12:05;97773.28;;;-4.06;100.00
7662;BME280;30314;48.184;11.510;2023-02-11T02:14:32;97765.16;;;-4.11;100.00
7662;BME280;30314;48.184;11.510;2023-02-11T02:16:58;97778.72;;;-4.09;100.00
7662;BME280;30314;48.184;11.510;2023-02-11T02:27:49;97750.03;;;-4.24;100.00
7662;BME280;30314;48.184;11.510;2023-02-11T02:33:07;97748.88;;;-4.12;100.00
7662;BME280;30314;48.184;11.510;2023-02-11T02:38:22;97718.91;;;-4.22;100.00
7662;BME280;30314;48.184;11.510;2023-02-11T02:43:29;97728.84;;;-4.28;100.00
7662;BME280;30314;48.184;11.510;2023-02-11T02:46:09;97742.84;;;-4.30;100.00
7662;BME280;30314;48.184;11.510;2023-02-11T02:48:36;97742.66;;;-4.19;100.00
7662;BME280;30314;48.184;11.510;2023-02-11T02:56:24;97717.81;;;-4.20;100.00
7662;BME280;30314;48.184;11.510;2023-02-11T02:59:06;97718.09;;;-4.23;100.00
7662;BME280;30314;48.184;11.510;2023-02-11T03:01:52;97706.59;;;-4.29;100.00
7662;BME280;30314;48.184;11.510;2023-02-11T03:04:28;97689.19;;;-4.27;100.00
7662;BME280;30314;48.184;11.510;2023-02-11T03:09:33;97668.19;;;-4.32;100.00
7662;BME280;30314;48.184;11.510;2023-02-11T03:12:04;97675.22;;;-4.06;100.00
7662;BME280;30314;48.184;11.510;2023-02-11T03:14:34;97671.66;;;-3.87;100.00
7662;BME280;30314;48.184;11.510;2023-02-11T03:17:03;97685.03;;;-3.47;100.00
7662;BME280;30314;48.184;11.510;2023-02-11T03:19:38;97684.44;;;-3.41;100.00
7662;BME280;30314;48.184;11.510;2023-02-11T03:22:12;97670.81;;;-3.51;100.00
7662;BME280;30314;48.184;11.510;2023-02-11T03:24:43;97677.72;;;-3.51;100.00
7662;BME280;30314;48.184;11.510;2023-02-11T03:27:40;97691.81;;;-3.46;100.00
7662;BME280;30314;48.184;11.510;2023-02-11T03:30:16;97687.47;;;-3.45;100.00
7662;BME280;30314;48.184;11.510;2023-02-11T03:32:55;97696.78;;;-3.52;100.00
7662;BME280;30314;48.184;11.510;2023-02-11T03:35:41;97664.41;;;-3.83;100.00
7662;BME280;30314;48.184;11.510;2023-02-11T03:38:34;97655.00;;;-3.92;100.00
7662;BME280;30314;48.184;11.510;2023-02-11T03:41:00;97679.22;;;-3.67;100.00
7662;BME280;30314;48.184;11.510;2023-02-11T03:43:41;97687.53;;;-3.55;100.00
7662;BME280;30314;48.184;11.510;2023-02-11T03:46:09;97667.72;;;-3.73;100.00
7662;BME280;30314;48.184;11.510;2023-02-11T03:48:43;97701.72;;;-3.59;100.00
7662;BME280;30314;48.184;11.510;2023-02-11T03:51:13;97679.31;;;-3.77;100.00
7662;BME280;30314;48.184;11.510;2023-02-11T03:53:42;97685.75;;;-3.81;100.00
7662;BME280;30314;48.184;11.510;2023-02-11T03:56:15;97689.56;;;-3.85;100.00
7662;BME280;30314;48.184;11.510;2023-02-11T03:58:44;97697.72;;;-3.80;100.00
7662;BME280;30314;48.184;11.510;2023-02-11T04:01:11;97685.97;;;-3.92;100.00
7662;BME280;30314;48.184;11.510;2023-02-11T04:03:37;97686.47;;;-3.89;100.00
7662;BME280;30314;48.184;11.510;2023-02-11T04:06:04;97662.31;;;-4.06;100.00
7662;BME280;30314;48.184;11.510;2023-02-11T04:08:31;97675.69;;;-4.02;100.00
7662;BME280;30314;48.184;11.510;2023-02-11T04:10:58;97696.31;;;-3.92;100.00
7662;BME280;30314;48.184;11.510;2023-02-11T04:13:24;97712.00;;;-3.86;100.00
7662;BME280;30314;48.184;11.510;2023-02-11T04:15:51;97705.88;;;-4.03;100.00
7662;BME280;30314;48.184;11.510;2023-02-11T04:18:18;97688.91;;;-4.23;100.00
7662;BME280;30314;48.184;11.510;2023-02-11T04:20:44;97697.16;;;-4.20;100.00
7662;BME280;30314;48.184;11.510;2023-02-11T04:23:11;97680.72;;;-4.19;100.00
7662;BME280;30314;48.184;11.510;2023-02-11T04:25:37;97653.56;;;-4.41;100.00
7662;BME280;30314;48.184;11.510;2023-02-11T04:28:04;97682.72;;;-4.31;100.00
7662;BME280;30314;48.184;11.510;2023-02-11T04:30:30;97669.97;;;-4.14;100.00
7662;BME280;30314;48.184;11.510;2023-02-11T04:32:57;97718.94;;;-3.86;100.00
7662;BME280;30314;48.184;11.510;2023-02-11T04:35:24;97685.09;;;-4.19;100.00
7662;BME280;30314;48.184;11.510;2023-02-11T04:37:50;97687.88;;;-4.31;100.00
7662;BME280;30314;48.184;11.510;2023-02-11T04:40:17;97694.19;;;-4.43;100.00
7662;BME280;30314;48.184;11.510;2023-02-11T04:42:43;97683.09;;;-4.54;100.00
7662;BME280;30314;48.184;11.510;2023-02-11T04:45:10;97710.44;;;-4.33;100.00
7662;BME280;30314;48.184;11.510;2023-02-11T04:47:36;97753.03;;;-3.83;100.00
7662;BME280;30314;48.184;11.510;2023-02-11T04:50:03;97756.34;;;-3.90;100.00
7662;BME280;30314;48.184;11.510;2023-02-11T04:52:30;97722.97;;;-4.20;100.00
7662;BME280;30314;48.184;11.510;2023-02-11T04:54:56;97748.34;;;-4.15;100.00
7662;BME280;30314;48.184;11.510;2023-02-11T04:57:23;97751.47;;;-4.21;100.00
7662;BME280;30314;48.184;11.510;2023-02-11T04:59:49;97768.16;;;-4.16;100.00
7662;BME280;30314;48.184;11.510;2023-02-11T05:02:16;97736.28;;;-4.25;100.00
7662;BME280;30314;48.184;11.510;2023-02-11T05:04:42;97728.25;;;-4.21;100.00
7662;BME280;30314;48.184;11.510;2023-02-11T05:07:09;97732.38;;;-4.29;100.00
7662;BME280;30314;48.184;11.510;2023-02-11T05:09:35;97747.53;;;-3.98;100.00
7662;BME280;30314;48.184;11.510;2023-02-11T05:12:02;97731.75;;;-4.13;100.00
7662;BME280;30314;48.184;11.510;2023-02-11T05:14:28;97742.47;;;-3.89;100.00
7662;BME280;30314;48.184;11.510;2023-02-11T05:16:55;97727.56;;;-3.95;100.00
7662;BME280;30314;48.184;11.510;2023-02-11T05:19:21;97730.72;;;-4.02;100.00
7662;BME280;30314;48.184;11.510;2023-02-11T05:21:48;97702.69;;;-4.15;100.00
7662;BME280;30314;48.184;11.510;2023-02-11T05:24:27;97714.66;;;-4.14;100.00
7662;BME280;30314;48.184;11.510;2023-02-11T05:26:53;97701.75;;;-3.95;100.00
7662;BME280;30314;48.184;11.510;2023-02-11T05:29:20;97711.19;;;-3.86;100.00
7662;BME280;30314;48.184;11.510;2023-02-11T05:31:46;97709.03;;;-3.91;100.00
7662;BME280;30314;48.184;11.510;2023-02-11T05:34:12;97721.38;;;-3.85;100.00
7662;BME280;30314;48.184;11.510;2023-02-11T05:36:39;97719.03;;;-3.78;100.00
7662;BME280;30314;48.184;11.510;2023-02-11T05:39:06;97712.94;;;-3.69;100.00
7662;BME280;30314;48.184;11.510;2023-02-11T05:41:32;97705.94;;;-3.76;100.00
7662;BME280;30314;48.184;11.510;2023-02-11T05:43:59;97706.09;;;-3.60;100.00
7662;BME280;30314;48.184;11.510;2023-02-11T05:46:25;97699.81;;;-3.57;100.00
7662;BME280;30314;48.184;11.510;2023-02-11T05:48:52;97699.44;;;-3.44;100.00
7662;BME280;30314;48.184;11.510;2023-02-11T05:51:18;97701.19;;;-3.45;100.00
7662;BME280;30314;48.184;11.510;2023-02-11T05:53:45;97692.66;;;-3.45;100.00
7662;BME280;30314;48.184;11.510;2023-02-11T05:56:11;97696.88;;;-3.36;100.00
7662;BME280;30314;48.184;11.510;2023-02-11T05:58:39;97681.66;;;-3.47;100.00
7662;BME280;30314;48.184;11.510;2023-02-11T06:01:06;97680.59;;;-3.36;100.00
7662;BME280;30314;48.184;11.510;2023-02-11T06:03:32;97687.91;;;-3.23;100.00
7662;BME280;30314;48.184;11.510;2023-02-11T06:05:59;97673.25;;;-3.23;100.00
7662;BME280;30314;48.184;11.510;2023-02-11T06:08:25;97653.84;;;-3.27;100.00
7662;BME280;30314;48.184;11.510;2023-02-11T06:10:52;97647.31;;;-3.39;100.00
7662;BME280;30314;48.184;11.510;2023-02-11T06:13:18;97645.84;;;-3.42;100.00
7662;BME280;30314;48.184;11.510;2023-02-11T06:15:54;97705.50;;;-3.01;100.00
7662;BME280;30314;48.184;11.510;2023-02-11T06:18:21;97682.97;;;-3.17;100.00
7662;BME280;30314;48.184;11.510;2023-02-11T06:20:48;97676.81;;;-3.16;100.00
7662;BME280;30314;48.184;11.510;2023-02-11T06:23:14;97663.56;;;-3.21;100.00
7662;BME280;30314;48.184;11.510;2023-02-11T06:25:41;97645.22;;;-3.36;100.00
7662;BME280;30314;48.184;11.510;2023-02-11T06:28:07;97672.13;;;-3.20;100.00
7662;BME280;30314;48.184;11.510;2023-02-11T06:30:36;97680.38;;;-3.17;100.00
7662;BME280;30314;48.184;11.510;2023-02-11T06:33:03;97710.53;;;-2.99;100.00
7662;BME280;30314;48.184;11.510;2023-02-11T06:35:30;97721.09;;;-2.92;100.00
7662;BME280;30314;48.184;11.510;2023-02-11T06:37:58;97697.63;;;-2.99;100.00
7662;BME280;30314;48.184;11.510;2023-02-11T06:40:25;97702.81;;;-2.91;100.00
7662;BME280;30314;48.184;11.510;2023-02-11T06:42:51;97654.66;;;-2.92;100.00
7662;BME280;30314;48.184;11.510;2023-02-11T06:45:18;97679.25;;;-2.88;100.00
7662;BME280;30314;48.184;11.510;2023-02-11T06:47:45;97702.56;;;-2.79;100.00
7662;BME280;30314;48.184;11.510;2023-02-11T06:50:13;97708.41;;;-2.69;100.00
7662;BME280;30314;48.184;11.510;2023-02-11T06:52:39;97652.84;;;-3.00;100.00
7662;BME280;30314;48.184;11.510;2023-02-11T06:55:06;97708.63;;;-2.62;100.00
7662;BME280;30314;48.184;11.510;2023-02-11T06:57:32;97694.19;;;-2.73;100.00
7662;BME280;30314;48.184;11.510;2023-02-11T06:59:59;97663.69;;;-2.96;100.00
7662;BME280;30314;48.184;11.510;2023-02-11T07:02:25;97680.50;;;-2.92;100.00
7662;BME280;30314;48.184;11.510;2023-02-11T07:04:52;97721.03;;;-2.74;100.00
7662;BME280;30314;48.184;11.510;2023-02-11T07:07:18;97684.56;;;-2.89;100.00
7662;BME280;30314;48.184;11.510;2023-02-11T07:09:45;97719.78;;;-2.62;100.00
7662;BME280;30314;48.184;11.510;2023-02-11T07:12:14;97738.09;;;-2.47;100.00
7662;BME280;30314;48.184;11.510;2023-02-11T07:14:41;97719.47;;;-2.59;100.00
7662;BME280;30314;48.184;11.510;2023-02-11T07:17:08;97673.13;;;-2.78;100.00
7662;BME280;30314;48.184;11.510;2023-02-11T07:19:34;97693.28;;;-2.56;100.00
7662;BME280;30314;48.184;11.510;2023-02-11T07:22:01;97711.72;;;-2.50;100.00
7662;BME280;30314;48.184;11.510;2023-02-11T07:24:27;97691.03;;;-2.50;100.00
7662;BME280;30314;48.184;11.510;2023-02-11T07:26:54;97705.78;;;-2.34;100.00
7662;BME280;30314;48.184;11.510;2023-02-11T07:29:20;97672.88;;;-1.99;100.00
7662;BME280;30314;48.184;11.510;2023-02-11T07:31:47;97644.34;;;-2.24;100.00
7662;BME280;30314;48.184;11.510;2023-02-11T07:34:14;97684.66;;;-2.13;100.00
7662;BME280;30314;48.184;11.510;2023-02-11T07:36:40;97635.38;;;-2.54;100.00
7662;BME280;30314;48.184;11.510;2023-02-11T07:39:09;97703.59;;;-2.04;100.00
7662;BME280;30314;48.184;11.510;2023-02-11T07:41:37;97702.78;;;-2.13;100.00
7662;BME280;30314;48.184;11.510;2023-02-11T07:44:04;97664.72;;;-2.37;100.00
7662;BME280;30314;48.184;11.510;2023-02-11T07:46:30;97704.75;;;-1.99;100.00
7662;BME280;30314;48.184;11.510;2023-02-11T07:48:57;97670.41;;;-2.09;100.00
7662;BME280;30314;48.184;11.510;2023-02-11T07:51:27;97703.78;;;-1.89;100.00
7662;BME280;30314;48.184;11.510;2023-02-11T07:53:56;97702.97;;;-1.90;100.00
7662;BME280;30314;48.184;11.510;2023-02-11T07:56:24;97702.19;;;-1.82;100.00
7662;BME280;30314;48.184;11.510;2023-02-11T07:58:50;97679.84;;;-1.75;100.00
7662;BME280;30314;48.184;11.510;2023-02-11T08:01:22;97686.47;;;-1.39;100.00
7662;BME280;30314;48.184;11.510;2023-02-11T08:03:50;97672.81;;;-1.16;100.00
7662;BME280;30314;48.184;11.510;2023-02-11T08:06:19;97679.78;;;-1.08;100.00
7662;BME280;30314;48.184;11.510;2023-02-11T08:08:46;97659.38;;;-1.11;100.00
7662;BME280;30314;48.184;11.510;2023-02-11T08:11:22;97650.16;;;-1.31;100.00
7662;BME280;30314;48.184;11.510;2023-02-11T08:13:49;97684.97;;;-1.08;100.00
7662;BME280;30314;48.184;11.510;2023-02-11T08:16:28;97694.00;;;-1.04;100.00
7662;BME280;30314;48.184;11.510;2023-02-11T08:18:57;97653.50;;;-1.05;100.00
7662;BME280;30314;48.184;11.510;2023-02-11T08:21:24;97684.22;;;-0.77;100.00
7662;BME280;30314;48.184;11.510;2023-02-11T08:23:51;97676.97;;;-0.50;100.00
7662;BME280;30314;48.184;11.510;2023-02-11T08:26:20;97620.16;;;-0.68;99.21
7662;BME280;30314;48.184;11.510;2023-02-11T08:28:48;97666.56;;;-0.42;100.00
7662;BME280;30314;48.184;11.510;2023-02-11T08:31:21;97619.53;;;-0.79;100.00
7662;BME280;30314;48.184;11.510;2023-02-11T08:33:48;97680.34;;;-0.41;100.00
7662;BME280;30314;48.184;11.510;2023-02-11T08:36:17;97662.38;;;-0.51;100.00
7662;BME280;30314;48.184;11.510;2023-02-11T08:38:44;97697.19;;;-0.37;100.00
7662;BME280;30314;48.184;11.510;2023-02-11T08:41:11;97698.97;;;-0.38;100.00
7662;BME280;30314;48.184;11.510;2023-02-11T08:43:41;97699.97;;;-0.39;100.00
7662;BME280;30314;48.184;11.510;2023-02-11T08:46:11;97689.28;;;-0.44;100.00
7662;BME280;30314;48.184;11.510;2023-02-11T08:48:38;97698.69;;;-0.11;96.99
7662;BME280;30314;48.184;11.510;2023-02-11T08:51:11;97701.81;;;0.07;96.32
7662;BME280;30314;48.184;11.510;2023-02-11T08:53:38;97673.13;;;0.01;95.74
7662;BME280;30314;48.184;11.510;2023-02-11T08:56:05;97678.31;;;0.01;95.82
7662;BME280;30314;48.184;11.510;2023-02-11T08:58:32;97693.34;;;0.13;95.26
7662;BME280;30314;48.184;11.510;2023-02-11T09:00:59;97653.78;;;0.03;91.81
7662;BME280;30314;48.184;11.510;2023-02-11T09:03:25;97647.03;;;-0.06;93.95
7662;BME280;30314;48.184;11.510;2023-02-11T09:05:52;97653.13;;;0.24;89.54
7662;BME280;30314;48.184;11.510;2023-02-11T09:08:19;97670.81;;;0.29;89.45
7662;BME280;30314;48.184;11.510;2023-02-11T09:10:46;97691.44;;;0.31;94.29
7662;BME280;30314;48.184;11.510;2023-02-11T09:13:12;97683.28;;;0.34;95.34
7662;BME280;30314;48.184;11.510;2023-02-11T09:15:44;97663.13;;;0.36;90.58
7662;BME280;30314;48.184;11.510;2023-02-11T09:18:12;97677.22;;;0.57;90.44
7662;BME280;30314;48.184;11.510;2023-02-11T09:20:38;97661.91;;;0.62;89.71
7662;BME280;30314;48.184;11.510;2023-02-11T09:23:05;97661.19;;;0.53;89.14
7662;BME280;30314;48.184;11.510;2023-02-11T09:25:31;97670.59;;;0.54;88.99
7662;BME280;30314;48.184;11.510;2023-02-11T09:27:58;97665.22;;;0.55;89.07
7662;BME280;30314;48.184;11.510;2023-02-11T09:30:24;97680.69;;;0.72;88.40
7662;BME280;30314;48.184;11.510;2023-02-11T09:32:51;97664.34;;;0.78;90.75
7662;BME280;30314;48.184;11.510;2023-02-11T09:35:17;97651.38;;;0.93;87.01
7662;BME280;30314;48.184;11.510;2023-02-11T09:37:43;97652.88;;;1.03;87.61
7662;BME280;30314;48.184;11.510;2023-02-11T09:40:11;97676.28;;;1.03;89.55
7662;BME280;30314;48.184;11.510;2023-02-11T09:42:49;97696.22;;;0.95;90.82
7662;BME280;30314;48.184;11.510;2023-02-11T09:45:21;97690.75;;;1.05;88.45
7662;BME280;30314;48.184;11.510;2023-02-11T09:47:53;97690.94;;;1.19;90.45
7662;BME280;30314;48.184;11.510;2023-02-11T09:50:35;97693.41;;;1.57;93.16
7662;BME280;30314;48.184;11.510;2023-02-11T09:53:26;97677.09;;;2.29;89.63
7662;BME280;30314;48.184;11.510;2023-02-11T09:55:54;97678.69;;;2.51;86.46
7662;BME280;30314;48.184;11.510;2023-02-11T09:58:31;97650.53;;;2.69;82.78
7662;BME280;30314;48.184;11.510;2023-02-11T10:04:31;97654.06;;;2.83;77.58
7662;BME280;30314;48.184;11.510;2023-02-11T10:10:36;97643.78;;;2.81;77.94
7662;BME280;30314;48.184;11.510;2023-02-11T10:18:55;97646.50;;;2.66;75.70
7662;BME280;30314;48.184;11.510;2023-02-11T10:21:39;97661.72;;;2.62;75.76
7662;BME280;30314;48.184;11.510;2023-02-11T10:24:13;97668.53;;;2.57;76.53
7662;BME280;30314;48.184;11.510;2023-02-11T10:26:42;97654.44;;;2.51;75.17
7662;BME280;30314;48.184;11.510;2023-02-11T10:29:48;97677.28;;;2.77;71.73
7662;BME280;30314;48.184;11.510;2023-02-11T10:33:26;97654.72;;;2.63;75.31
7662;BME280;30314;48.184;11.510;2023-02-11T10:35:21;97645.28;;;2.90;74.46
7662;BME280;30314;48.184;11.510;2023-02-11T10:37:49;97639.19;;;2.83;75.18
7662;BME280;30314;48.184;11.510;2023-02-11T10:40:19;97657.50;;;2.90;75.58
7662;BME280;30314;48.184;11.510;2023-02-11T10:42:49;97653.00;;;3.12;72.05
7662;BME280;30314;48.184;11.510;2023-02-11T10:45:25;97649.63;;;3.18;70.52
7662;BME280;30314;48.184;11.510;2023-02-11T10:47:52;97616.72;;;3.24;67.52
7662;BME280;30314;48.184;11.510;2023-02-11T10:50:30;97646.81;;;3.20;69.64
7662;BME280;30314;48.184;11.510;2023-02-11T10:55:36;97642.56;;;3.68;64.73
7662;BME280;30314;48.184;11.510;2023-02-11T10:58:03;97612.78;;;3.55;64.08
7662;BME280;30314;48.184;11.510;2023-02-11T11:00:41;97634.38;;;3.84;64.33
7662;BME280;30314;48.184;11.510;2023-02-11T11:03:19;97619.88;;;3.82;67.06
7662;BME280;30314;48.184;11.510;2023-02-11T11:05:51;97626.38;;;4.06;60.71
7662;BME280;30314;48.184;11.510;2023-02-11T11:08:44;97621.13;;;3.86;65.84
7662;BME280;30314;48.184;11.510;2023-02-11T11:11:22;97640.19;;;3.86;64.97
7662;BME280;30314;48.184;11.510;2023-02-11T11:16:24;97621.13;;;3.86;64.84
7662;BME280;30314;48.184;11.510;2023-02-11T11:19:14;97622.06;;;3.64;66.60
7662;BME280;30314;48.184;11.510;2023-02-11T11:21:48;97625.91;;;3.69;65.45
7662;BME280;30314;48.184;11.510;2023-02-11T11:24:30;97621.47;;;3.62;67.23
7662;BME280;30314;48.184;11.510;2023-02-11T11:27:01;97605.97;;;3.54;68.44
7662;BME280;30314;48.184;11.510;2023-02-11T11:29:37;97617.06;;;3.83;61.31
7662;BME280;30314;48.184;11.510;2023-02-11T11:32:18;97589.75;;;3.79;59.65
7662;BME280;30314;48.184;11.510;2023-02-11T11:34:52;97607.81;;;3.74;62.08
7662;BME280;30314;48.184;11.510;2023-02-11T11:37:31;97600.19;;;3.86;60.13
7662;BME280;30314;48.184;11.510;2023-02-11T11:42:37;97605.63;;;3.98;60.30
7662;BME280;30314;48.184;11.510;2023-02-11T11:45:25;97598.97;;;3.82;62.31
7662;BME280;30314;48.184;11.510;2023-02-11T11:50:46;97612.28;;;4.27;59.67
7662;BME280;30314;48.184;11.510;2023-02-11T11:53:28;97619.13;;;4.42;62.14
7662;BME280;30314;48.184;11.510;2023-02-11T11:56:15;97612.09;;;4.42;58.55
7662;BME280;30314;48.184;11.510;2023-02-11T11:58:43;97605.88;;;4.36;60.89
7662;BME280;30314;48.184;11.510;2023-02-11T12:01:42;97611.88;;;4.30;62.10
7662;BME280;30314;48.184;11.510;2023-02-11T12:07:49;97600.22;;;4.26;61.25
7662;BME280;30314;48.184;11.510;2023-02-11T12:15:27;97582.34;;;4.16;57.77
7662;BME280;30314;48.184;11.510;2023-02-11T12:18:10;97577.88;;;4.10;59.92
7662;BME280;30314;48.184;11.510;2023-02-11T12:26:22;97588.56;;;4.08;58.78
7662;BME280;30314;48.184;11.510;2023-02-11T12:30:12;97593.56;;;4.10;59.00
7662;BME280;30314;48.184;11.510;2023-02-11T12:35:22;97588.72;;;4.61;56.74
7662;BME280;30314;48.184;11.510;2023-02-11T12:40:45;97564.19;;;4.48;58.61
7662;BME280;30314;48.184;11.510;2023-02-11T12:43:22;97565.19;;;4.54;60.11
7662;BME280;30314;48.184;11.510;2023-02-11T12:54:28;97564.38;;;4.54;57.32
7662;BME280;30314;48.184;11.510;2023-02-11T12:57:02;97559.50;;;4.64;55.75
7662;BME280;30314;48.184;11.510;2023-02-11T12:59:50;97558.75;;;4.50;55.98
7662;BME280;30314;48.184;11.510;2023-02-11T13:02:40;97539.25;;;4.05;57.66
7662;BME280;30314;48.184;11.510;2023-02-11T13:05:26;97556.56;;;4.27;56.12
7662;BME280;30314;48.184;11.510;2023-02-11T13:08:01;97541.66;;;4.34;55.10
7662;BME280;30314;48.184;11.510;2023-02-11T13:10:35;97538.44;;;4.32;54.42
7662;BME280;30314;48.184;11.510;2023-02-11T13:13:20;97552.53;;;4.31;55.73
7662;BME280;30314;48.184;11.510;2023-02-11T13:15:52;97515.94;;;4.11;55.39
7662;BME280;30314;48.184;11.510;2023-02-11T13:26:44;97515.25;;;4.62;54.08
7662;BME280;30314;48.184;11.510;2023-02-11T13:29:25;97512.25;;;5.04;53.08
7662;BME280;30314;48.184;11.510;2023-02-11T13:32:07;97516.25;;;5.14;53.12
7662;BME280;30314;48.184;11.510;2023-02-11T13:39:56;97523.09;;;5.15;53.29
7662;BME280;30314;48.184;11.510;2023-02-11T13:42:23;97513.19;;;5.17;53.09
7662;BME280;30314;48.184;11.510;2023-02-11T13:44:50;97515.81;;;5.56;49.88
7662;BME280;30314;48.184;11.510;2023-02-11T13:47:26;97499.19;;;5.37;51.90
7662;BME280;30314;48.184;11.510;2023-02-11T13:49:58;97512.88;;;5.39;52.09
7662;BME280;30314;48.184;11.510;2023-02-11T13:52:29;97527.78;;;5.38;52.31
7662;BME280;30314;48.184;11.510;2023-02-11T13:55:02;97534.31;;;5.29;52.36
7662;BME280;30314;48.184;11.510;2023-02-11T13:57:33;97524.31;;;5.12;52.40
7662;BME280;30314;48.184;11.510;2023-02-11T14:00:08;97532.31;;;5.24;53.64
7662;BME280;30314;48.184;11.510;2023-02-11T14:14:31;97523.41;;;5.32;51.94
7662;BME280;30314;48.184;11.510;2023-02-11T14:19:37;97525.31;;;5.50;52.87
7662;BME280;30314;48.184;11.510;2023-02-11T14:24:45;97520.31;;;5.42;53.52
7662;BME280;30314;48.184;11.510;2023-02-11T14:27:24;97523.69;;;5.56;53.70
7662;BME280;30314;48.184;11.510;2023-02-11T14:35:37;97533.59;;;5.08;56.45
7662;BME280;30314;48.184;11.510;2023-02-11T14:38:25;97539.97;;;5.19;55.88
7662;BME280;30314;48.184;11.510;2023-02-11T14:41:15;97517.91;;;5.01;57.40
7662;BME280;30314;48.184;11.510;2023-02-11T14:43:56;97518.56;;;4.90;58.66
7662;BME280;30314;48.184;11.510;2023-02-11T14:46:25;97518.19;;;4.79;59.80
7662;BME280;30314;48.184;11.510;2023-02-11T14:48:57;97501.59;;;5.06;59.39
7662;BME280;30314;48.184;11.510;2023-02-11T14:51:38;97527.16;;;5.11;59.12
7662;BME280;30314;48.184;11.510;2023-02-11T14:54:18;97531.19;;;5.00;60.80
7662;BME280;30314;48.184;11.510;2023-02-11T14:59:31;97532.53;;;4.70;61.74
7662;BME280;30314;48.184;11.510;2023-02-11T15:01:58;97551.22;;;4.81;62.93
7662;BME280;30314;48.184;11.510;2023-02-11T15:04:29;97552.63;;;4.76;63.84
7662;BME280;30314;48.184;11.510;2023-02-11T15:07:04;97531.16;;;4.61;63.71
7662;BME280;30314;48.184;11.510;2023-02-11T15:09:44;97532.16;;;4.60;63.78
7662;BME280;30314;48.184;11.510;2023-02-11T15:12:18;97537.59;;;4.58;64.19